Time;durP1;ratioP1;P1;durP2;ratioP2;P2;SDS_P1;SDS_P2;PMS_P1;PMS_P2;Temp;Humidity;BMP_temperature;BMP_pressure;BME280_temperature;BME280_humidity;BME280_pressure;Samples;Min_cycle;Max_cycle;Signal;HPM_P1;HPM_P2
2023/01/07 00:01:58;;;;;;;9.10;5.90;;;;;;;;;;4974066;28;20186;-88
2023/01/07 00:04:23;;;;;;;4.77;3.97;;;0.90;99.90;;;;;;4984844;28;20181;-89
2023/01/07 00:06:51;;;;;;;10.23;5.70;;;0.90;99.90;;;;;;4969962;29;20217;-88
2023/01/07 00:09:18;;;;;;;14.07;6.10;;;;;;;;;;4979961;28;20228;-93
2023/01/07 00:11:44;;;;;;;13.20;6.60;;;;;;;;;;4969961;28;20206;-88
2023/01/07 00:14:11;;;;;;;27.23;11.17;;;0.80;99.90;;;;;;4971849;28;20183;-88
2023/01/07 00:16:39;;;;;;;7.77;4.57;;;0.80;99.90;;;;;;4971914;28;20206;-88
2023/01/07 00:19:06;;;;;;;8.03;3.93;;;0.80;99.90;;;;;;4971992;28;20198;-89
2023/01/07 00:21:34;;;;;;;6.27;4.20;;;0.80;99.90;;;;;;4955958;29;20508;-90
2023/01/07 00:24:03;;;;;;;9.00;5.03;;;0.80;99.90;;;;;;4955267;28;20185;-89
2023/01/07 00:26:32;;;;;;;9.20;4.87;;;0.80;99.90;;;;;;4955250;29;20318;-89
2023/01/07 00:28:58;;;;;;;11.73;4.20;;;1.50;99.90;;;;;;4956160;29;20603;-89
2023/01/07 00:31:27;;;;;;;4.03;3.63;;;0.80;99.90;;;;;;4970955;28;20688;-88
2023/01/07 00:36:22;;;;;;;20.47;7.63;;;0.90;99.90;;;;;;4954858;29;20199;-88
2023/01/07 00:38:56;;;;;;;16.70;7.17;;;0.90;99.90;;;;;;4956285;29;20183;-88
2023/01/07 00:41:23;;;;;;;13.17;8.73;;;;;;;;;;4955982;29;20170;-88
2023/01/07 00:43:49;;;;;;;9.17;6.17;;;;;;;;;;4970764;28;20229;-88
2023/01/07 00:46:15;;;;;;;16.47;7.73;;;;;;;;;;4954903;29;20219;-89
2023/01/07 00:48:44;;;;;;;13.50;6.73;;;;;;;;;;4970928;28;20266;-89
2023/01/07 00:51:11;;;;;;;17.20;7.70;;;1.10;99.90;;;;;;4970918;28;20186;-88
2023/01/07 00:53:37;;;;;;;12.30;5.80;;;;;;;;;;4954621;29;20473;-86
2023/01/07 00:56:03;;;;;;;13.77;7.47;;;;;;;;;;4971009;28;20190;-88
2023/01/07 00:58:30;;;;;;;15.07;6.87;;;;;;;;;;4970255;28;20183;-87
2023/01/07 01:01:00;;;;;;;4.80;4.40;;;1.10;99.90;;;;;;4970646;28;20245;-88
2023/01/07 01:03:27;;;;;;;6.70;4.53;;;1.10;99.90;;;;;;4970382;28;20185;-88
2023/01/07 01:05:53;;;;;;;14.03;7.77;;;1.10;99.90;;;;;;4955227;29;20200;-88
2023/01/07 01:08:24;;;;;;;11.43;6.77;;;1.10;99.90;;;;;;4969655;28;20241;-92
2023/01/07 01:10:52;;;;;;;6.17;3.50;;;1.10;99.90;;;;;;4954243;29;20202;-88
2023/01/07 01:13:18;;;;;;;7.77;4.80;;;;;;;;;;4970404;28;20222;-86
2023/01/07 01:15:45;;;;;;;9.13;4.67;;;1.10;99.90;;;;;;4954070;29;20185;-88
2023/01/07 01:18:11;;;;;;;9.07;4.90;;;;;;;;;;4964856;28;20245;-88
2023/01/07 01:20:38;;;;;;;10.70;5.93;;;;;;;;;;4970238;28;20183;-89
2023/01/07 01:23:04;;;;;;;4.17;3.50;;;;;;;;;;4970779;28;20187;-89
2023/01/07 01:25:32;;;;;;;5.27;4.07;;;;;;;;;;4970167;28;20546;-89
2023/01/07 01:28:05;;;;;;;6.20;3.87;;;1.20;99.90;;;;;;4970272;28;20220;-89
2023/01/07 01:30:33;;;;;;;7.00;4.37;;;1.10;99.90;;;;;;4954095;29;20196;-88
2023/01/07 01:33:02;;;;;;;4.57;3.63;;;;;;;;;;4955413;29;20179;-89
2023/01/07 01:35:28;;;;;;;4.50;3.03;;;;;;;;;;4953736;29;20237;-89
2023/01/07 01:37:54;;;;;;;11.43;4.80;;;;;;;;;;4955140;29;20183;-89
2023/01/07 01:40:28;;;;;;;13.20;5.00;;;1.10;99.90;;;;;;4954222;29;20198;-88
2023/01/07 01:42:54;;;;;;;4.83;3.73;;;;;;;;;;4955365;29;20167;-88
2023/01/07 01:45:20;;;;;;;5.67;3.60;;;;;;;;;;4954163;29;20183;-88
2023/01/07 01:48:06;;;;;;;4.23;3.37;;;1.10;99.90;;;;;;4953681;29;20219;-88
2023/01/07 01:50:43;;;;;;;5.27;3.37;;;1.30;99.90;;;;;;4954061;28;20187;-88
2023/01/07 01:53:09;;;;;;;6.00;3.13;;;;;;;;;;4954120;28;20519;-88
2023/01/07 01:55:37;;;;;;;4.60;3.87;;;1.10;99.90;;;;;;4955908;28;20186;-88
2023/01/07 01:58:10;;;;;;;14.13;6.57;;;1.10;99.90;;;;;;4974113;28;20195;-88
2023/01/07 02:00:36;;;;;;;4.30;3.27;;;;;;;;;;4958872;28;20268;-88
2023/01/07 02:03:05;;;;;;;6.27;4.80;;;1.10;99.90;;;;;;4967191;28;20187;-86
2023/01/07 02:05:33;;;;;;;6.77;5.40;;;1.10;99.90;;;;;;4982067;28;20193;-94
2023/01/07 02:08:02;;;;;;;9.03;4.53;;;1.10;99.90;;;;;;4989244;28;20263;-87
2023/01/07 02:10:30;;;;;;;7.03;4.77;;;;;;;;;;4957224;28;20182;-88
2023/01/07 02:13:41;;;;;;;4.77;4.07;;;1.10;99.90;;;;;;4978757;28;20185;-88
2023/01/07 02:16:06;;;;;;;4.77;3.80;;;1.10;99.90;;;;;;4960891;28;20175;-88
2023/01/07 02:19:10;;;;;;;11.17;5.13;;;1.20;99.90;;;;;;4976617;28;20188;-88
2023/01/07 02:21:59;;;;;;;3.53;2.10;;;1.30;99.90;;;;;;4960541;28;20189;-88
2023/01/07 02:24:43;;;;;;;6.00;3.33;;;1.40;99.90;;;;;;4977845;28;20613;-88
2023/01/07 02:27:38;;;;;;;6.47;4.83;;;1.40;99.90;;;;;;4977867;28;20202;-88
2023/01/07 02:30:19;;;;;;;4.17;3.73;;;1.50;99.90;;;;;;4977263;28;20209;-87
2023/01/07 02:32:44;;;;;;;6.93;4.37;;;1.60;99.90;;;;;;4977712;28;20258;-88
2023/01/07 02:35:19;;;;;;;5.73;3.77;;;1.50;99.90;;;;;;4976299;28;20216;-88
2023/01/07 02:38:32;;;;;;;13.63;5.67;;;1.50;99.90;;;;;;4976373;28;20220;-89
2023/01/07 02:41:07;;;;;;;11.70;4.63;;;1.50;99.90;;;;;;4917926;28;20226;-89
2023/01/07 02:43:55;;;;;;;4.90;3.27;;;1.60;99.90;;;;;;4976134;28;20700;-94
2023/01/07 02:46:47;;;;;;;18.43;5.50;;;1.70;99.90;;;;;;4977508;28;20221;-89
2023/01/07 02:49:15;;;;;;;5.03;3.33;;;1.70;99.90;;;;;;4976308;28;20332;-89
2023/01/07 02:51:41;;;;;;;7.00;3.20;;;1.80;99.90;;;;;;4975957;28;20182;-89
2023/01/07 02:54:25;;;;;;;10.23;3.93;;;1.80;99.90;;;;;;4976351;28;20252;-90
2023/01/07 02:57:16;;;;;;;8.97;4.57;;;1.90;99.90;;;;;;4977288;28;20620;-90
2023/01/07 03:00:13;;;;;;;7.03;3.80;;;1.90;99.90;;;;;;4968817;28;20674;-89
2023/01/07 03:03:24;;;;;;;8.33;5.77;;;1.90;99.90;;;;;;4975571;28;20205;-89
2023/01/07 03:05:54;;;;;;;8.33;5.90;;;1.90;99.90;;;;;;4983311;28;20159;-88
2023/01/07 03:08:33;;;;;;;9.57;6.83;;;2.00;99.90;;;;;;4965813;28;20234;-89
2023/01/07 03:11:04;;;;;;;13.63;6.30;;;2.00;99.90;;;;;;4977051;28;20174;-89
2023/01/07 03:13:42;;;;;;;12.73;6.67;;;2.10;99.90;;;;;;4959780;28;20631;-89
2023/01/07 03:16:16;;;;;;;11.40;5.70;;;2.10;99.90;;;;;;4977280;28;20256;-88
2023/01/07 03:19:08;;;;;;;12.17;6.67;;;2.20;99.90;;;;;;4959455;28;20217;-89
2023/01/07 03:21:36;;;;;;;12.53;6.27;;;2.20;99.90;;;;;;4959181;28;20186;-91
2023/01/07 03:24:04;;;;;;;11.10;6.43;;;2.30;99.90;;;;;;4959340;28;20182;-89
2023/01/07 03:26:39;;;;;;;25.20;9.63;;;2.20;99.90;;;;;;4969014;28;20226;-88
2023/01/07 03:29:09;;;;;;;21.60;5.43;;;2.20;99.90;;;;;;4998654;28;20178;-89
2023/01/07 03:31:40;;;;;;;20.53;8.70;;;2.30;99.90;;;;;;4978913;28;20249;-88
2023/01/07 03:34:30;;;;;;;10.30;5.80;;;2.30;99.90;;;;;;4986007;28;20209;-90
2023/01/07 03:37:04;;;;;;;12.57;7.00;;;2.30;99.90;;;;;;4979854;28;20189;-89
2023/01/07 03:39:35;;;;;;;9.57;6.60;;;2.30;99.90;;;;;;4975671;28;20186;-89
2023/01/07 03:44:51;;;;;;;13.17;6.43;;;2.30;99.90;;;;;;4976807;28;20182;-90
2023/01/07 03:47:18;;;;;;;13.00;6.27;;;2.30;99.90;;;;;;4959630;28;20210;-90
2023/01/07 03:49:43;;;;;;;15.20;7.60;;;2.30;99.90;;;;;;4959613;28;20179;-90
2023/01/07 03:52:14;;;;;;;14.50;5.90;;;2.30;99.90;;;;;;4959267;28;20264;-88
2023/01/07 03:54:40;;;;;;;16.93;7.20;;;;;;;;;;4974847;28;20188;-89
2023/01/07 03:57:08;;;;;;;18.33;4.90;;;;;;;;;;4959147;28;20273;-89
2023/01/07 03:59:42;;;;;;;17.67;7.17;;;;;;;;;;4959386;28;20189;-89
2023/01/07 04:02:10;;;;;;;12.20;5.40;;;;;;;;;;4962623;28;20644;-89
2023/01/07 04:04:36;;;;;;;7.00;4.83;;;;;;;;;;4960331;28;20214;-87
2023/01/07 04:07:02;;;;;;;16.10;5.87;;;;;;;;;;4958388;28;20226;-88
2023/01/07 04:09:35;;;;;;;10.50;6.20;;;;;;;;;;4953575;28;20326;-89
2023/01/07 04:12:02;;;;;;;16.93;5.90;;;;;;;;;;4953096;28;20237;-88
2023/01/07 04:14:33;;;;;;;15.37;7.17;;;2.10;99.90;;;;;;4941219;29;20723;-88
2023/01/07 04:16:59;;;;;;;13.00;6.67;;;;;;;;;;4954666;28;20202;-89
2023/01/07 04:19:25;;;;;;;13.07;5.77;;;;;;;;;;4956415;29;20190;-90
2023/01/07 04:21:51;;;;;;;22.90;5.00;;;;;;;;;;4956657;29;20207;-89
2023/01/07 04:24:17;;;;;;;13.57;6.23;;;;;;;;;;4955032;29;20315;-87
2023/01/07 04:26:45;;;;;;;11.37;4.80;;;;;;;;;;4955289;29;20214;-88
2023/01/07 04:29:15;;;;;;;8.77;4.47;;;2.00;99.90;;;;;;4951919;29;20200;-89
2023/01/07 04:31:41;;;;;;;3.97;3.63;;;;;;;;;;4935880;29;20231;-88
2023/01/07 04:34:07;;;;;;;12.30;3.97;;;;;;;;;;4936163;29;20190;-88
2023/01/07 04:36:33;;;;;;;4.90;3.27;;;;;;;;;;4951817;29;20258;-89
2023/01/07 04:38:59;;;;;;;10.93;4.00;;;;;;;;;;4955998;29;20266;-89
2023/01/07 04:41:25;;;;;;;5.17;3.90;;;;;;;;;;4956189;29;20732;-89
2023/01/07 04:43:51;;;;;;;9.43;4.53;;;;;;;;;;4954467;29;20241;-91
2023/01/07 04:46:20;;;;;;;13.17;5.80;;;;;;;;;;4954483;29;20198;-89
2023/01/07 04:48:46;;;;;;;8.10;5.07;;;;;;;;;;4955992;29;20188;-89
2023/01/07 04:51:14;;;;;;;13.37;5.37;;;1.90;99.90;;;;;;4954451;29;20201;-90
2023/01/07 04:53:42;;;;;;;9.87;5.07;;;;;;;;;;4955641;28;20268;-89
2023/01/07 04:56:08;;;;;;;8.10;5.20;;;;;;;;;;4954905;28;20209;-89
2023/01/07 04:58:37;;;;;;;12.47;5.77;;;;;;;;;;4954649;28;20191;-89
2023/01/07 05:01:06;;;;;;;9.27;4.33;;;;;;;;;;4954298;29;20189;-88
2023/01/07 05:03:34;;;;;;;13.03;5.97;;;2.00;99.90;;;;;;4954352;29;20625;-88
2023/01/07 05:06:00;;;;;;;11.97;5.63;;;;;;;;;;4953608;29;20273;-88
2023/01/07 05:08:26;;;;;;;13.30;4.53;;;2.00;99.90;;;;;;4953900;29;20703;-88
2023/01/07 05:10:52;;;;;;;16.97;5.37;;;2.00;99.90;;;;;;4956061;28;20234;-91
2023/01/07 05:13:22;;;;;;;7.83;3.67;;;2.00;99.90;;;;;;4954715;29;20627;-90
2023/01/07 05:15:48;;;;;;;7.77;4.83;;;;;;;;;;4971104;28;20189;-89
2023/01/07 05:18:19;;;;;;;10.63;6.37;;;2.00;99.90;;;;;;4953706;29;20187;-89
2023/01/07 05:20:47;;;;;;;13.63;5.90;;;2.10;99.90;;;;;;4952923;29;20191;-90
2023/01/07 05:23:13;;;;;;;8.23;5.03;;;;;;;;;;4950181;29;20270;-90
2023/01/07 05:25:39;;;;;;;8.40;4.67;;;;;;;;;;4969081;28;20198;-90
2023/01/07 05:28:09;;;;;;;12.97;5.97;;;2.10;99.90;;;;;;4953515;29;20211;-90
2023/01/07 05:30:35;;;;;;;8.70;6.10;;;;;;;;;;4950425;28;20185;-90
2023/01/07 05:33:06;;;;;;;12.10;5.97;;;2.10;99.90;;;;;;4952503;28;20231;-90
2023/01/07 05:35:35;;;;;;;18.50;7.47;;;2.30;99.90;;;;;;4950062;28;20237;-89
2023/01/07 05:38:03;;;;;;;5.43;3.93;;;;;;;;;;4953488;29;20193;-89
2023/01/07 05:40:31;;;;;;;6.33;3.90;;;2.00;99.90;;;;;;4954613;28;20214;-90
2023/01/07 05:42:57;;;;;;;8.33;4.13;;;;;;;;;;4951988;29;20186;-89
2023/01/07 05:45:26;;;;;;;5.00;4.20;;;;;;;;;;4974638;28;20210;-90
2023/01/07 05:47:52;;;;;;;15.57;5.80;;;;;;;;;;4972043;28;20206;-89
2023/01/07 05:50:18;;;;;;;13.27;4.67;;;;;;;;;;4954466;28;20226;-90
2023/01/07 05:52:44;;;;;;;4.17;3.80;;;;;;;;;;4969157;28;20191;-90
2023/01/07 05:55:22;;;;;;;8.07;3.03;;;2.00;99.90;;;;;;4969102;28;20217;-90
2023/01/07 05:57:48;;;;;;;10.13;5.47;;;;;;;;;;4953049;29;20190;-89
2023/01/07 06:00:20;;;;;;;18.07;7.00;;;2.00;99.90;;;;;;4969104;28;20183;-91
2023/01/07 06:02:52;;;;;;;15.00;5.40;;;1.90;99.90;;;;;;4939177;29;20218;-90
2023/01/07 06:05:21;;;;;;;6.60;5.03;;;;;;;;;;4953747;28;20239;-90
2023/01/07 06:07:47;;;;;;;8.67;4.50;;;;;;;;;;4958351;28;20222;-90
2023/01/07 06:10:13;;;;;;;10.03;4.23;;;;;;;;;;4972332;28;20667;-89
2023/01/07 06:12:41;;;;;;;12.03;4.10;;;;;;;;;;4972694;28;20183;-90
2023/01/07 06:15:07;;;;;;;13.10;4.27;;;1.90;99.90;;;;;;4938958;28;20178;-88
2023/01/07 06:17:34;;;;;;;6.40;3.97;;;;;;;;;;4971441;28;20202;-90
2023/01/07 06:20:02;;;;;;;9.30;4.43;;;1.90;99.90;;;;;;4971851;28;20182;-90
2023/01/07 06:22:28;;;;;;;8.57;3.63;;;;;;;;;;4973078;28;20188;-89
2023/01/07 06:24:54;;;;;;;13.50;5.40;;;;;;;;;;4971845;28;20193;-91
2023/01/07 06:27:22;;;;;;;10.73;3.73;;;;;;;;;;4970941;28;20213;-89
2023/01/07 06:29:48;;;;;;;10.13;5.83;;;;;;;;;;4971418;28;20201;-91
2023/01/07 06:32:15;;;;;;;21.20;7.13;;;;;;;;;;4970430;28;20186;-90
2023/01/07 06:34:43;;;;;;;6.60;3.87;;;;;;;;;;4973015;28;20642;-89
2023/01/07 06:37:09;;;;;;;8.67;4.93;;;1.90;99.90;;;;;;4993798;28;20174;-95
2023/01/07 06:39:37;;;;;;;17.17;6.00;;;;;;;;;;4961861;28;20190;-88
2023/01/07 06:42:03;;;;;;;7.33;3.67;;;;;;;;;;4961379;28;20248;-91
2023/01/07 06:44:29;;;;;;;8.07;4.37;;;;;;;;;;4960107;28;20193;-89
2023/01/07 06:46:55;;;;;;;4.33;2.63;;;;;;;;;;4976249;28;20559;-89
2023/01/07 06:49:21;;;;;;;7.80;4.07;;;;;;;;;;4991736;28;20194;-92
2023/01/07 06:51:48;;;;;;;6.83;4.70;;;;;;;;;;4976624;28;20190;-89
2023/01/07 06:54:21;;;;;;;8.10;4.60;;;2.00;99.90;;;;;;4981015;28;20210;-89
2023/01/07 06:56:50;;;;;;;3.83;3.20;;;;;;;;;;4960115;28;20194;-87
2023/01/07 06:59:16;;;;;;;8.70;3.93;;;;;;;;;;4980966;28;20190;-89
2023/01/07 07:01:44;;;;;;;9.57;4.03;;;;;;;;;;4981437;28;20212;-90
2023/01/07 07:04:10;;;;;;;8.10;5.30;;;2.00;99.90;;;;;;4962048;28;20658;-87
2023/01/07 07:06:36;;;;;;;20.27;4.23;;;2.10;99.90;;;;;;4961999;28;20293;-90
2023/01/07 07:09:02;;;;;;;6.90;3.60;;;2.00;99.90;;;;;;4944341;28;20699;-91
2023/01/07 07:11:27;;;;;;;12.70;6.47;;;2.10;99.90;;;;;;4977465;28;20185;-92
2023/01/07 07:13:53;;;;;;;18.53;6.00;;;2.00;99.90;;;;;;4944249;28;20358;-90
2023/01/07 07:16:21;;;;;;;14.40;5.23;;;0.70;99.90;;;;;;4960478;28;20743;-90
2023/01/07 07:18:49;;;;;;;15.97;6.90;;;;;;;;;;4976276;28;20658;-91
2023/01/07 07:21:15;;;;;;;8.23;5.67;;;;;;;;;;4976402;28;20624;-92
2023/01/07 07:23:41;;;;;;;13.37;6.57;;;;;;;;;;4976398;28;20182;-92
2023/01/07 07:26:08;;;;;;;14.93;8.13;;;;;;;;;;4980580;28;20718;-91
2023/01/07 07:28:41;;;;;;;28.13;9.43;;;2.00;99.90;;;;;;4982142;28;20403;-93
2023/01/07 07:31:13;;;;;;;17.87;7.03;;;1.90;99.90;;;;;;4956016;28;20187;-94
2023/01/07 07:33:51;;;;;;;16.63;8.63;;;3.70;99.90;;;;;;4976091;28;20205;-93
2023/01/07 07:37:02;;;;;;;9.17;4.97;;;2.50;99.90;;;;;;4978446;28;20269;-95
2023/01/07 07:39:32;;;;;;;9.63;5.70;;;;;;;;;;4992110;28;20177;-92
2023/01/07 07:42:21;;;;;;;12.10;6.93;;;2.00;99.90;;;;;;4976571;28;20186;-93
2023/01/07 07:44:49;;;;;;;20.93;7.30;;;2.20;99.90;;;;;;4946643;28;20222;-91
2023/01/07 07:47:21;;;;;;;26.97;6.60;;;1.90;99.90;;;;;;4960638;28;20205;-92
2023/01/07 07:50:01;;;;;;;14.47;5.30;;;2.10;99.90;;;;;;4959772;28;20536;-93
2023/01/07 07:52:27;;;;;;;24.10;9.13;;;;;;;;;;4948479;29;20195;-93
2023/01/07 07:54:59;;;;;;;21.60;5.87;;;2.10;99.90;;;;;;4953354;29;20195;-94
2023/01/07 07:58:04;;;;;;;;;;;;;;;;;;;;;
2023/01/07 08:00:34;;;;;;;14.27;4.93;;;2.70;99.90;;;;;;4957480;29;20199;-92
2023/01/07 08:03:22;;;;;;;13.47;4.77;;;2.60;99.90;;;;;;4958959;29;20246;-91
2023/01/07 08:05:58;;;;;;;;;;;;;;;;;;;;;
2023/01/07 08:08:25;;;;;;;17.60;9.90;;;2.40;99.90;;;;;;4975907;28;20237;-91
2023/01/07 08:11:06;;;;;;;14.60;8.17;;;2.40;99.90;;;;;;4974440;28;20177;-93
2023/01/07 08:14:03;;;;;;;18.57;7.90;;;1.20;99.90;;;;;;4953615;28;20189;-93
2023/01/07 08:16:41;;;;;;;;;;;;;;;;;;;;;
2023/01/07 08:19:15;;;;;;;10.80;6.20;;;;;;;;;;4976643;28;20278;-92
2023/01/07 08:21:44;;;;;;;13.93;6.83;;;;;;;;;;4976153;28;20195;-93
2023/01/07 08:24:10;;;;;;;20.93;8.53;;;;;;;;;;4958355;28;20253;-93
2023/01/07 08:26:39;;;;;;;10.70;6.20;;;;;;;;;;4954864;28;20229;-91
2023/01/07 08:29:11;;;;;;;22.97;10.53;;;2.70;99.90;;;;;;4959060;28;20198;-93
2023/01/07 08:31:37;;;;;;;25.27;10.50;;;;;;;;;;4969263;28;20228;-93
2023/01/07 08:34:05;;;;;;;19.73;9.57;;;;;;;;;;4959116;28;20195;-91
2023/01/07 08:36:58;;;;;;;14.43;7.40;;;2.80;99.90;;;;;;4959136;28;20186;-91
2023/01/07 08:39:29;;;;;;;25.27;6.60;;;2.90;99.90;;;;;;4959300;28;20186;-92
2023/01/07 08:42:36;;;;;;;26.33;7.73;;;2.30;99.90;;;;;;4955234;28;20191;-94
2023/01/07 08:45:34;;;;;;;18.87;7.87;;;7.10;99.90;;;;;;4970232;28;20200;-92
2023/01/07 08:48:30;;;;;;;13.53;5.23;;;3.00;99.90;;;;;;4908183;28;20316;-92
2023/01/07 08:51:28;;;;;;;;;;;;;;;;;;;;;
2023/01/07 08:54:05;;;;;;;13.07;6.47;;;3.00;99.90;;;;;;4965117;28;20653;-91
2023/01/07 08:56:33;;;;;;;12.87;4.77;;;3.00;99.90;;;;;;4951058;28;20647;-92
2023/01/07 09:03:29;;;;;;;;;;;;;;;;;;;;;
2023/01/07 09:10:11;;;;;;;9.53;4.57;;;3.20;99.90;;;;;;4839934;29;20794;-92
2023/01/07 09:20:05;;;;;;;5.57;4.10;;;3.40;99.90;;;;;;4881676;29;20212;-92
2023/01/07 09:22:01;;;;;;;7.27;5.53;;;3.60;99.90;;;;;;4882223;29;20190;-93
2023/01/07 09:24:35;;;;;;;12.93;5.23;;;;;;;;;;4873266;29;20281;-92
2023/01/07 09:27:01;;;;;;;11.33;6.00;;;;;;;;;;4914253;29;20230;-90
2023/01/07 09:29:27;;;;;;;9.13;6.60;;;;;;;;;;4950436;29;20202;-90
2023/01/07 09:31:54;;;;;;;6.50;3.33;;;;;;;;;;4934193;29;20191;-88
2023/01/07 09:34:20;;;;;;;6.77;3.97;;;;;;;;;;4937126;28;20255;-87
2023/01/07 09:36:46;;;;;;;13.17;6.10;;;;;;;;;;4948756;28;20233;-87
2023/01/07 09:39:12;;;;;;;13.60;5.27;;;;;;;;;;4944446;29;20195;-88
2023/01/07 09:41:47;;;;;;;8.57;5.33;;;3.50;99.90;;;;;;4949758;28;20199;-88
2023/01/07 09:44:36;;;;;;;16.63;5.10;;;3.50;99.90;;;;;;4934924;29;20199;-89
2023/01/07 09:50:20;;;;;;;15.43;7.73;;;3.60;99.90;;;;;;4935294;29;20199;-91
2023/01/07 09:53:07;;;;;;;10.63;6.13;;;3.60;99.90;;;;;;4942074;29;20199;-90
2023/01/07 09:55:36;;;;;;;16.20;6.67;;;3.60;99.90;;;;;;4954123;29;20196;-90
2023/01/07 09:58:02;;;;;;;13.00;5.67;;;;;;;;;;4953764;29;20243;-88
2023/01/07 10:00:30;;;;;;;13.80;5.87;;;3.70;99.90;;;;;;4946190;29;20192;-88
2023/01/07 10:03:24;;;;;;;17.33;6.23;;;3.60;99.90;;;;;;4950353;28;20919;-89
2023/01/07 10:06:05;;;;;;;8.63;4.37;;;3.70;99.90;;;;;;4929969;29;20195;-89
2023/01/07 10:08:53;;;;;;;15.43;5.73;;;3.70;99.90;;;;;;4942257;29;20293;-88
2023/01/07 10:11:43;;;;;;;14.33;5.57;;;3.70;99.90;;;;;;4951564;28;20622;-90
2023/01/07 10:14:27;;;;;;;12.87;5.80;;;3.80;99.90;;;;;;4967812;28;20207;-89
2023/01/07 10:17:08;;;;;;;18.10;6.00;;;3.80;99.90;;;;;;4969494;28;20201;-89
2023/01/07 10:19:53;;;;;;;7.10;4.90;;;3.70;99.90;;;;;;4957997;29;20274;-89
2023/01/07 10:22:33;;;;;;;12.37;5.30;;;3.80;99.90;;;;;;4957760;29;20196;-90
2023/01/07 10:25:17;;;;;;;9.47;5.70;;;3.90;99.90;;;;;;4954432;28;20726;-92
2023/01/07 10:27:46;;;;;;;20.63;7.20;;;4.00;99.90;;;;;;4971532;28;20661;-90
2023/01/07 10:30:25;;;;;;;16.07;7.17;;;4.10;99.90;;;;;;4940562;29;20194;-90
2023/01/07 10:33:00;;;;;;;15.23;6.70;;;4.10;99.90;;;;;;4970062;28;20230;-88
2023/01/07 10:35:36;;;;;;;16.43;6.63;;;4.10;99.90;;;;;;4969870;28;20274;-90
2023/01/07 10:38:04;;;;;;;17.53;5.97;;;4.10;99.90;;;;;;4979250;28;20198;-88
2023/01/07 10:40:56;;;;;;;16.13;5.43;;;4.10;99.90;;;;;;4974777;28;20187;-89
2023/01/07 10:43:28;;;;;;;22.53;7.13;;;4.20;99.90;;;;;;4963873;28;20183;-89
2023/01/07 10:46:03;;;;;;;17.07;5.83;;;4.20;99.90;;;;;;4952477;29;20195;-89
2023/01/07 10:48:58;;;;;;;15.57;5.47;;;4.70;99.90;;;;;;4951362;29;20877;-89
2023/01/07 10:51:37;;;;;;;13.53;6.13;;;4.40;99.90;;;;;;4961522;28;20663;-90
2023/01/07 10:54:34;;;;;;;17.80;6.07;;;4.30;99.90;;;;;;4970131;28;20187;-90
2023/01/07 10:57:12;;;;;;;19.03;7.33;;;4.60;99.90;;;;;;4968595;29;20206;-91
2023/01/07 10:59:42;;;;;;;18.33;7.23;;;4.40;99.90;;;;;;4956435;29;20541;-90
2023/01/07 11:02:19;;;;;;;11.27;6.33;;;4.40;99.90;;;;;;4935793;29;20196;-89
2023/01/07 11:04:45;;;;;;;15.57;6.83;;;;;;;;;;4954289;28;20295;-91
2023/01/07 11:07:26;;;;;;;11.70;5.67;;;4.50;99.90;;;;;;4971016;28;20219;-91
2023/01/07 11:10:04;;;;;;;11.40;4.87;;;4.50;99.90;;;;;;4950378;28;20203;-90
2023/01/07 11:12:51;;;;;;;15.33;6.37;;;5.70;99.90;;;;;;4956689;29;20194;-94
2023/01/07 11:15:29;;;;;;;13.93;5.57;;;4.50;99.90;;;;;;4967681;28;20653;-91
2023/01/07 11:18:08;;;;;;;16.60;6.47;;;4.60;99.90;;;;;;4952073;29;20529;-92
2023/01/07 11:20:45;;;;;;;12.00;6.20;;;2.10;99.90;;;;;;4967779;28;20245;-91
2023/01/07 11:23:42;;;;;;;11.00;6.10;;;5.20;99.90;;;;;;4965267;28;20685;-88
2023/01/07 11:26:48;;;;;;;;;;;;;;;;;;;;;
2023/01/07 11:29:42;;;;;;;11.50;5.47;;;4.80;99.90;;;;;;4954109;29;20243;-90
2023/01/07 11:32:25;;;;;;;13.13;5.93;;;4.90;99.90;;;;;;4969893;28;20187;-89
2023/01/07 11:35:27;;;;;;;10.30;5.53;;;5.00;99.90;;;;;;4967157;28;20180;-91
2023/01/07 11:38:01;;;;;;;12.97;5.60;;;;;;;;;;4938088;29;20268;-90
2023/01/07 11:41:40;;;;;;;;;;;;;;;;;;;;;
2023/01/07 11:44:14;;;;;;;17.83;8.03;;;5.00;99.90;;;;;;4935953;29;20206;-90
2023/01/07 11:46:45;;;;;;;16.33;8.27;;;5.20;99.90;;;;;;4934911;29;20247;-91
2023/01/07 11:49:41;;;;;;;21.43;9.47;;;3.90;99.90;;;;;;4948633;29;21007;-90
2023/01/07 11:52:35;;;;;;;19.53;7.73;;;6.00;99.90;;;;;;4955202;29;20183;-93
2023/01/07 11:55:20;;;;;;;16.00;7.67;;;5.20;99.90;;;;;;4940026;29;20211;-92
2023/01/07 11:57:55;;;;;;;16.53;8.83;;;5.30;99.90;;;;;;4951866;29;20183;-91
2023/01/07 12:00:53;;;;;;;25.47;11.27;;;5.30;99.90;;;;;;4969853;28;20175;-90
2023/01/07 12:04:05;;;;;;;28.33;8.97;;;5.30;99.90;;;;;;4940008;29;20188;-92
2023/01/07 12:06:37;;;;;;;25.07;8.17;;;5.40;99.90;;;;;;4950262;29;20219;-91
2023/01/07 12:09:47;;;;;;;16.57;7.97;;;3.40;99.90;;;;;;4967517;28;20680;-90
2023/01/07 12:12:38;;;;;;;18.90;9.77;;;3.20;99.90;;;;;;4897695;29;20215;-90
2023/01/07 12:15:25;;;;;;;23.80;9.37;;;5.40;99.90;;;;;;4895497;29;20208;-90
2023/01/07 12:18:06;;;;;;;24.20;8.97;;;5.60;99.90;;;;;;4941435;29;20555;-90
2023/01/07 12:24:31;;;;;;;15.93;8.93;;;5.40;99.90;;;;;;4947597;29;20209;-93
2023/01/07 12:27:08;;;;;;;25.17;11.63;;;5.40;99.90;;;;;;4951854;29;20230;-90
2023/01/07 12:29:57;;;;;;;52.40;13.87;;;5.90;99.90;;;;;;4953038;29;20549;-91
2023/01/07 12:33:08;;;;;;;24.73;10.73;;;5.70;99.90;;;;;;4968959;28;20274;-91
2023/01/07 12:35:44;;;;;;;27.77;9.50;;;5.70;99.90;;;;;;4952263;29;20604;-90
2023/01/07 12:38:32;;;;;;;45.80;13.27;;;5.60;99.90;;;;;;4950412;28;20187;-90
2023/01/07 12:41:09;;;;;;;38.10;13.03;;;5.70;99.90;;;;;;4952293;29;20254;-91
2023/01/07 12:44:01;;;;;;;70.60;23.20;;;5.70;99.90;;;;;;4951675;29;20186;-89
2023/01/07 12:46:39;;;;;;;38.73;16.23;;;5.80;99.90;;;;;;4956179;28;20213;-91
2023/01/07 12:50:23;;;;;;;36.03;14.40;;;5.90;99.90;;;;;;4951524;28;20190;-91
2023/01/07 12:52:49;;;;;;;28.30;11.57;;;;;;;;;;4937923;29;20246;-90
2023/01/07 12:56:00;;;;;;;39.50;13.27;;;;;;;;;;4956158;29;20207;-93
2023/01/07 13:05:10;;;;;;;45.60;17.43;;;6.20;99.90;;;;;;4936094;29;20593;-90
2023/01/07 13:08:14;;;;;;;57.50;20.67;;;3.00;99.90;;;;;;4942137;28;20706;-90
2023/01/07 13:11:05;;;;;;;25.70;12.30;;;5.70;99.90;;;;;;4952923;28;20268;-88
2023/01/07 13:13:46;;;;;;;27.43;12.07;;;5.60;99.90;;;;;;4969091;28;20187;-91
2023/01/07 13:16:44;;;;;;;;;;;;;;;;;;;;;
2023/01/07 13:19:31;;;;;;;65.13;22.60;;;5.60;99.90;;;;;;4958456;28;20281;-91
2023/01/07 13:22:03;;;;;;;55.63;19.50;;;5.90;99.90;;;;;;4958010;28;20187;-92
2023/01/07 13:25:11;;;;;;;38.30;16.13;;;5.80;99.90;;;;;;4953732;28;20186;-92
2023/01/07 13:27:56;;;;;;;40.70;15.53;;;6.00;99.90;;;;;;4970681;28;20220;-91
2023/01/07 13:30:51;;;;;;;34.13;12.43;;;5.80;99.90;;;;;;4970654;28;20285;-89
2023/01/07 13:33:25;;;;;;;59.30;19.57;;;;;;;;;;4955357;28;20197;-89
2023/01/07 13:36:10;;;;;;;61.13;20.23;;;5.80;99.90;;;;;;4962601;28;20202;-91
2023/01/07 13:39:25;;;;;;;43.33;16.53;;;5.80;99.90;;;;;;4969970;28;20186;-90
2023/01/07 13:41:59;;;;;;;31.23;12.60;;;5.70;99.90;;;;;;4956869;28;20225;-92
2023/01/07 13:44:49;;;;;;;30.17;12.03;;;5.50;99.90;;;;;;4974129;28;20186;-89
2023/01/07 13:47:49;;;;;;;;;;;;;;;;;;;;;
2023/01/07 13:50:36;;;;;;;34.00;15.07;;;5.60;99.90;;;;;;4961051;28;20194;-91
2023/01/07 13:53:29;;;;;;;44.23;20.70;;;5.50;99.90;;;;;;4974946;28;20187;-92
2023/01/07 13:56:21;;;;;;;61.87;22.90;;;5.40;99.90;;;;;;4956196;28;20193;-93
2023/01/07 13:58:54;;;;;;;40.87;16.70;;;5.40;99.90;;;;;;4956806;28;20240;-90
2023/01/07 14:04:42;;;;;;;;;;;;;;;;;;;;;
2023/01/07 14:07:13;;;;;;;44.80;16.33;;;5.10;99.90;;;;;;4980605;28;20210;-91
2023/01/07 14:10:05;;;;;;;26.43;13.60;;;5.00;99.90;;;;;;4982608;28;20194;-91
2023/01/07 14:12:57;;;;;;;34.33;15.43;;;5.70;99.90;;;;;;4971938;28;20202;-92
2023/01/07 14:15:52;;;;;;;47.20;18.17;;;4.90;99.90;;;;;;4994568;28;20166;-91
2023/01/07 14:19:37;;;;;;;39.93;17.67;;;4.80;99.90;;;;;;4958940;28;20194;-91
2023/01/07 14:33:01;;;;;;;;;;;;;;;;;;;;;
2023/01/07 14:36:16;;;;;;;55.50;20.03;;;4.70;99.90;;;;;;4897138;29;20239;-93
2023/01/07 14:38:42;;;;;;;37.33;15.87;;;4.40;99.90;;;;;;4966475;28;20222;-91
2023/01/07 14:41:08;;;;;;;48.40;18.97;;;;;;;;;;4993250;28;20198;-94
2023/01/07 14:43:51;;;;;;;43.33;15.20;;;4.20;99.90;;;;;;4997162;28;20187;-93
2023/01/07 14:47:08;;;;;;;32.47;15.73;;;4.10;99.90;;;;;;4982233;28;20199;-93
2023/01/07 14:49:59;;;;;;;32.37;16.27;;;4.40;99.90;;;;;;4967606;28;20274;-96
2023/01/07 14:52:48;;;;;;;44.50;16.93;;;3.90;99.90;;;;;;4994173;28;20171;-93
2023/01/07 14:55:33;;;;;;;57.70;20.37;;;4.70;99.90;;;;;;4977905;28;20185;-93
2023/01/07 15:21:17;;;;;;;137.17;54.67;;;3.50;99.90;;;;;;4366400;23;20525;-91
2023/01/07 15:24:12;;;;;;;124.47;43.10;;;3.50;99.90;;;;;;5013522;28;20252;-92
2023/01/07 15:26:51;;;;;;;188.60;66.47;;;3.50;99.90;;;;;;4981007;28;20174;-89
2023/01/07 15:30:02;;;;;;;121.40;45.37;;;1.90;99.90;;;;;;4987181;28;20182;-91
2023/01/07 15:33:01;;;;;;;127.80;51.73;;;3.70;99.90;;;;;;4977735;28;20194;-90
2023/01/07 15:35:38;;;;;;;117.07;41.50;;;3.40;99.90;;;;;;4974214;29;20214;-91